createdAt,value
2023-04-02T00:00:23.749Z,15.35
2023-04-02T00:03:00.403Z,15.34
2023-04-02T00:05:31.685Z,15.34
2023-04-02T00:07:59.668Z,15.31
2023-04-02T00:10:33.178Z,15.30
2023-04-02T00:13:24.452Z,15.30
2023-04-02T00:15:52.156Z,15.29
2023-04-02T00:18:20.994Z,15.33
2023-04-02T00:20:51.346Z,15.35
2023-04-02T00:23:18.999Z,15.35
2023-04-02T00:25:46.360Z,15.39
2023-04-02T00:28:21.578Z,15.42
2023-04-02T00:30:48.230Z,15.49
2023-04-02T00:33:16.315Z,15.50
2023-04-02T00:35:48.883Z,15.49
2023-04-02T00:38:38.445Z,15.49
2023-04-02T00:41:06.930Z,15.55
2023-04-02T00:43:39.798Z,15.56
2023-04-02T00:46:14.267Z,15.61
2023-04-02T00:49:30.020Z,15.60
2023-04-02T00:52:02.681Z,15.63
2023-04-02T00:54:32.863Z,15.66
2023-04-02T00:57:00.432Z,15.59
2023-04-02T00:59:55.201Z,15.56
2023-04-02T01:02:26.780Z,15.53
2023-04-02T01:04:58.649Z,15.55
2023-04-02T01:07:37.623Z,15.56
2023-04-02T01:10:07.623Z,15.51
2023-04-02T01:12:41.402Z,15.44
2023-04-02T01:15:14.648Z,15.32
2023-04-02T01:18:06.627Z,15.35
2023-04-02T01:20:38.864Z,15.34
2023-04-02T01:23:46.922Z,15.31
2023-04-02T01:26:47.190Z,15.31
2023-04-02T01:29:32.292Z,15.29
2023-04-02T01:32:01.678Z,15.31
2023-04-02T01:34:29.518Z,15.31
2023-04-02T01:37:24.398Z,15.35
2023-04-02T01:39:50.968Z,15.33
2023-04-02T01:42:22.995Z,15.37
2023-04-02T01:44:54.571Z,15.34
2023-04-02T01:47:27.454Z,15.29
2023-04-02T01:49:59.096Z,15.27
2023-04-02T01:52:35.362Z,15.26
2023-04-02T01:55:03.651Z,15.28
2023-04-02T01:57:34.459Z,15.26
2023-04-02T02:00:02.074Z,15.25
2023-04-02T02:02:30.377Z,15.24
2023-04-02T02:04:58.086Z,15.24
2023-04-02T02:07:26.223Z,15.28
2023-04-02T02:09:54.034Z,15.28
2023-04-02T02:12:22.094Z,15.29
2023-04-02T02:14:50.093Z,15.30
2023-04-02T02:17:19.848Z,15.32
2023-04-02T02:19:48.943Z,15.26
2023-04-02T02:22:31.939Z,15.32
2023-04-02T02:25:12.128Z,15.32
2023-04-02T02:27:56.945Z,15.28
2023-04-02T02:30:53.836Z,15.28
2023-04-02T02:33:40.369Z,15.31
2023-04-02T02:36:47.429Z,15.28
2023-04-02T02:39:41.421Z,15.28
2023-04-02T02:42:15.948Z,15.25
2023-04-02T02:44:45.643Z,15.23
2023-04-02T02:47:17.382Z,15.06
2023-04-02T02:49:53.100Z,15.07
2023-04-02T02:52:22.159Z,15.06
2023-04-02T02:54:51.282Z,15.02
2023-04-02T02:57:22.219Z,15.02
2023-04-02T02:59:50.978Z,15.02
2023-04-02T03:02:19.062Z,15.02
2023-04-02T03:04:48.303Z,15.01
2023-04-02T03:07:16.354Z,15.00
2023-04-02T03:09:52.963Z,15.04
2023-04-02T03:12:25.622Z,14.99
2023-04-02T03:15:27.535Z,14.99
2023-04-02T03:18:26.277Z,14.96
2023-04-02T03:20:58.880Z,14.92
2023-04-02T03:23:42.045Z,14.90
2023-04-02T03:26:15.846Z,14.88
2023-04-02T03:28:54.937Z,14.90
2023-04-02T03:31:37.901Z,14.91
2023-04-02T03:34:25.722Z,14.86
2023-04-02T03:37:33.224Z,14.70
2023-04-02T03:40:04.659Z,14.47
2023-04-02T03:42:40.253Z,14.38
2023-04-02T03:45:22.516Z,14.39
2023-04-02T03:48:21.346Z,14.36
2023-04-02T03:50:53.034Z,14.40
2023-04-02T03:53:24.088Z,14.41
2023-04-02T03:55:51.563Z,14.48
2023-04-02T03:58:24.611Z,14.60
2023-04-02T04:01:14.946Z,14.68
2023-04-02T04:03:50.620Z,14.72
2023-04-02T04:06:27.728Z,14.75
2023-04-02T04:09:12.445Z,14.79
2023-04-02T04:11:49.701Z,14.74
2023-04-02T04:14:18.291Z,14.77
2023-04-02T04:16:57.380Z,14.79
2023-04-02T04:19:47.151Z,14.79
2023-04-02T04:22:32.009Z,14.81
2023-04-02T04:25:00.121Z,14.83
2023-04-02T04:27:42.972Z,14.85
2023-04-02T04:30:29.264Z,14.80
2023-04-02T04:33:04.167Z,14.80
2023-04-02T04:35:45.554Z,14.75
2023-04-02T04:38:55.776Z,14.75
2023-04-02T04:41:25.565Z,14.73
2023-04-02T04:43:57.617Z,14.69
2023-04-02T04:46:48.075Z,14.70
2023-04-02T04:49:43.203Z,14.66
2023-04-02T04:52:13.113Z,14.72
2023-04-02T04:54:41.128Z,14.72
2023-04-02T04:57:13.577Z,14.74
2023-04-02T04:59:43.059Z,14.71
2023-04-02T05:02:17.234Z,14.68
2023-04-02T05:04:45.301Z,14.58
2023-04-02T05:07:31.738Z,14.50
2023-04-02T05:10:00.333Z,14.37
2023-04-02T05:12:34.863Z,14.23
2023-04-02T05:15:12.156Z,14.10
2023-04-02T05:17:50.470Z,14.02
2023-04-02T05:20:29.670Z,13.92
2023-04-02T05:23:23.546Z,13.80
2023-04-02T05:26:08.662Z,13.76
2023-04-02T05:28:49.292Z,13.76
2023-04-02T05:31:23.008Z,13.70
2023-04-02T05:33:51.062Z,13.70
2023-04-02T05:36:26.487Z,13.72
2023-04-02T05:38:54.168Z,13.73
2023-04-02T05:41:36.694Z,13.77
2023-04-02T05:44:25.072Z,13.75
2023-04-02T05:47:01.502Z,13.79
2023-04-02T05:49:43.030Z,13.88
2023-04-02T05:52:14.056Z,13.91
2023-04-02T05:54:46.296Z,13.97
2023-04-02T05:57:18.938Z,14.00
2023-04-02T05:59:57.661Z,14.01
2023-04-02T06:02:40.140Z,14.03
2023-04-02T06:05:13.626Z,14.03
2023-04-02T06:08:00.873Z,14.07
2023-04-02T06:10:38.264Z,14.04
2023-04-02T06:13:08.982Z,14.06
2023-04-02T06:15:36.618Z,14.08
2023-04-02T06:18:10.040Z,14.09
2023-04-02T06:20:38.372Z,14.12
2023-04-02T06:23:19.247Z,14.18
2023-04-02T06:25:56.078Z,14.21
2023-04-02T06:28:27.073Z,14.29
2023-04-02T06:30:58.479Z,14.34
2023-04-02T06:33:26.681Z,14.44
2023-04-02T06:35:53.849Z,14.52
2023-04-02T06:38:26.840Z,14.60
2023-04-02T06:40:58.936Z,14.69
2023-04-02T06:43:36.208Z,14.77
2023-04-02T06:46:25.954Z,14.77
2023-04-02T06:48:53.990Z,14.84
2023-04-02T06:51:21.884Z,14.87
2023-04-02T06:53:50.176Z,14.92
2023-04-02T06:56:40.053Z,14.91
2023-04-02T06:59:07.841Z,14.90
2023-04-02T07:01:52.035Z,14.89
2023-04-02T07:04:20.086Z,14.91
2023-04-02T07:06:47.982Z,14.90
2023-04-02T07:09:15.610Z,14.85
2023-04-02T07:11:43.813Z,14.82
2023-04-02T07:14:14.588Z,14.82
2023-04-02T07:16:42.271Z,14.82
2023-04-02T07:19:36.792Z,14.79
2023-04-02T07:22:04.877Z,14.81
2023-04-02T07:24:32.917Z,14.84
2023-04-02T07:27:01.029Z,14.92
2023-04-02T07:29:29.173Z,14.94
2023-04-02T07:31:57.306Z,14.96
2023-04-02T07:34:25.342Z,14.97
2023-04-02T07:36:53.642Z,14.98
2023-04-02T07:39:21.686Z,15.02
2023-04-02T07:41:53.816Z,15.07
2023-04-02T07:44:21.854Z,15.09
2023-04-02T07:46:50.513Z,15.07
2023-04-02T07:49:17.781Z,15.10
2023-04-02T07:51:45.740Z,15.14
2023-04-02T07:54:13.157Z,15.14
2023-04-02T07:56:41.285Z,15.18
2023-04-02T07:59:09.389Z,15.16
2023-04-02T08:01:37.465Z,15.22
2023-04-02T08:04:09.730Z,15.18
2023-04-02T08:06:37.338Z,15.14
2023-04-02T08:09:28.891Z,15.20
2023-04-02T08:12:05.443Z,15.31
2023-04-02T08:14:33.932Z,15.24
2023-04-02T08:17:06.381Z,15.13
2023-04-02T08:19:44.337Z,15.08
2023-04-02T08:22:22.823Z,15.07
2023-04-02T08:24:50.557Z,14.98
2023-04-02T08:27:18.010Z,15.11
2023-04-02T08:29:45.896Z,15.11
2023-04-02T08:32:13.901Z,15.04
2023-04-02T08:34:41.909Z,15.07
2023-04-02T08:37:12.726Z,15.03
2023-04-02T08:39:40.881Z,15.12
2023-04-02T08:42:15.723Z,15.15
2023-04-02T08:45:21.183Z,15.26
2023-04-02T08:47:52.118Z,15.27
2023-04-02T08:50:31.049Z,15.31
2023-04-02T08:52:58.716Z,15.35
2023-04-02T08:55:38.297Z,15.35
2023-04-02T08:58:25.207Z,15.35
2023-04-02T09:00:56.585Z,15.39
2023-04-02T09:03:31.583Z,15.47
2023-04-02T09:05:59.366Z,15.48
2023-04-02T09:08:27.654Z,15.57
2023-04-02T09:11:11.938Z,15.66
2023-04-02T09:13:42.598Z,15.66
2023-04-02T09:16:15.183Z,15.77
2023-04-02T09:18:42.881Z,15.95
2023-04-02T09:21:35.630Z,16.31
2023-04-02T09:24:05.306Z,16.81
2023-04-02T09:26:34.267Z,17.20
2023-04-02T09:29:13.332Z,17.91
2023-04-02T09:32:22.354Z,18.53
2023-04-02T09:34:50.392Z,19.03
2023-04-02T09:37:23.050Z,19.49
2023-04-02T09:45:23.800Z,20.31
2023-04-02T09:53:30.796Z,20.47
2023-04-02T10:01:54.594Z,20.95
2023-04-02T10:04:44.250Z,21.07
2023-04-02T10:07:43.991Z,21.16
2023-04-02T10:10:32.128Z,21.30
2023-04-02T10:13:03.222Z,21.33
2023-04-02T10:15:42.532Z,21.15
2023-04-02T10:18:17.032Z,20.95
2023-04-02T10:20:50.914Z,20.68
2023-04-02T10:23:20.234Z,20.54
2023-04-02T10:26:04.529Z,20.38
2023-04-02T10:28:56.229Z,20.25
2023-04-02T10:34:05.578Z,20.14
2023-04-02T10:47:27.389Z,21.65
2023-04-02T10:50:09.584Z,21.83
2023-04-02T10:52:42.197Z,22.20
2023-04-02T10:55:18.789Z,22.71
2023-04-02T10:57:46.600Z,23.66
2023-04-02T11:00:15.913Z,24.77
2023-04-02T11:03:08.310Z,25.63
2023-04-02T11:05:48.392Z,26.64
2023-04-02T11:08:40.230Z,27.34
2023-04-02T11:11:18.675Z,27.85
2023-04-02T11:13:48.537Z,27.72
2023-04-02T11:16:16.548Z,26.64
2023-04-02T11:18:44.929Z,26.37
2023-04-02T11:21:30.373Z,26.66
2023-04-02T11:24:01.072Z,26.15
2023-04-02T11:26:41.878Z,25.82
2023-04-02T11:29:22.548Z,26.49
2023-04-02T11:31:50.345Z,26.46
2023-04-02T11:34:42.323Z,26.70
2023-04-02T11:37:31.084Z,27.25
2023-04-02T11:39:59.758Z,27.74
2023-04-02T11:42:29.592Z,27.67
2023-04-02T11:44:59.438Z,27.73
2023-04-02T11:47:27.721Z,27.46
2023-04-02T11:50:04.503Z,27.20
2023-04-02T11:52:48.664Z,27.08
2023-04-02T11:55:27.896Z,26.36
2023-04-02T11:58:01.029Z,24.21
2023-04-02T12:00:34.543Z,22.27
2023-04-02T12:03:38.797Z,20.46
2023-04-02T12:06:18.769Z,18.29
2023-04-02T12:09:06.045Z,17.10
2023-04-02T12:11:38.287Z,16.36
2023-04-02T12:14:32.197Z,16.02
2023-04-02T12:16:59.746Z,16.09
2023-04-02T12:19:27.478Z,16.12
2023-04-02T12:21:55.193Z,16.13
2023-04-02T12:24:22.879Z,16.14
2023-04-02T12:26:50.575Z,16.52
2023-04-02T12:29:47.666Z,16.78
2023-04-02T12:32:37.600Z,16.99
2023-04-02T12:35:05.341Z,17.08
2023-04-02T12:37:32.648Z,17.16
2023-04-02T12:40:02.205Z,17.31
2023-04-02T12:42:52.908Z,17.69
2023-04-02T12:45:26.178Z,17.98
2023-04-02T12:47:55.292Z,18.04
2023-04-02T12:50:23.263Z,18.02
2023-04-02T12:52:51.290Z,17.89
2023-04-02T12:55:20.294Z,18.10
2023-04-02T12:57:50.082Z,18.18
2023-04-02T13:00:23.013Z,18.08
2023-04-02T13:03:01.055Z,18.29
2023-04-02T13:05:49.183Z,19.23
2023-04-02T13:08:30.909Z,20.65
2023-04-02T13:10:59.750Z,21.98
2023-04-02T13:13:30.299Z,23.28
2023-04-02T13:16:29.133Z,24.38
2023-04-02T13:19:12.938Z,25.25
2023-04-02T13:21:40.681Z,25.00
2023-04-02T13:24:26.612Z,25.25
2023-04-02T13:27:02.860Z,25.67
2023-04-02T13:29:30.588Z,25.68
2023-04-02T13:32:00.132Z,25.21
2023-04-02T13:34:27.969Z,25.20
2023-04-02T13:36:55.217Z,25.42
2023-04-02T13:39:23.434Z,25.97
2023-04-02T13:42:00.605Z,26.65
2023-04-02T13:44:31.281Z,26.63
2023-04-02T13:46:59.498Z,26.68
2023-04-02T13:49:27.622Z,26.97
2023-04-02T13:52:00.176Z,27.43
2023-04-02T13:54:46.638Z,27.79
2023-04-02T13:57:34.764Z,27.91
2023-04-02T14:00:22.047Z,28.57
2023-04-02T14:02:56.367Z,29.17
2023-04-02T14:05:41.759Z,29.49
2023-04-02T14:08:38.079Z,29.38
2023-04-02T14:11:14.035Z,29.06
2023-04-02T14:14:03.794Z,29.29
2023-04-02T14:16:48.789Z,29.75
2023-04-02T14:19:18.264Z,30.18
2023-04-02T14:22:23.312Z,30.27
2023-04-02T14:25:32.538Z,30.65
2023-04-02T14:28:07.428Z,31.11
2023-04-02T14:30:34.920Z,31.30
2023-04-02T14:33:23.079Z,30.51
2023-04-02T14:35:52.582Z,29.99
2023-04-02T14:38:22.608Z,30.13
2023-04-02T14:41:10.590Z,30.46
2023-04-02T14:43:55.074Z,30.10
2023-04-02T14:46:26.351Z,29.35
2023-04-02T14:49:03.990Z,28.72
2023-04-02T14:51:40.798Z,28.49
2023-04-02T14:54:25.987Z,27.43
2023-04-02T14:57:01.649Z,26.63
2023-04-02T14:59:31.333Z,25.87
2023-04-02T15:02:09.876Z,25.39
2023-04-02T15:04:54.429Z,24.80
2023-04-02T15:07:23.666Z,24.42
2023-04-02T15:10:14.907Z,23.98
2023-04-02T15:12:42.800Z,23.49
2023-04-02T15:15:29.698Z,23.34
2023-04-02T15:18:12.921Z,23.15
2023-04-02T15:21:03.943Z,23.04
2023-04-02T15:23:37.246Z,23.15
2023-04-02T15:26:16.590Z,23.19
2023-04-02T15:28:58.015Z,23.14
2023-04-02T15:31:27.528Z,23.26
2023-04-02T15:34:28.474Z,23.24
2023-04-02T15:37:06.115Z,23.18
2023-04-02T15:40:07.692Z,23.36
2023-04-02T15:42:38.774Z,23.19
2023-04-02T15:45:24.090Z,22.93
2023-04-02T15:48:11.912Z,23.24
2023-04-02T15:50:51.273Z,23.88
2023-04-02T15:53:43.802Z,24.39
2023-04-02T15:56:27.247Z,23.91
2023-04-02T15:58:57.122Z,23.61
2023-04-02T16:01:51.911Z,24.98
2023-04-02T16:04:25.381Z,26.34
2023-04-02T16:07:07.904Z,26.48
2023-04-02T16:09:58.988Z,25.72
2023-04-02T16:12:27.404Z,24.72
2023-04-02T16:14:54.759Z,23.94
2023-04-02T16:17:34.877Z,23.23
2023-04-02T16:21:00.940Z,22.82
2023-04-02T16:23:38.285Z,22.42
2023-04-02T16:26:29.668Z,22.16
2023-04-02T16:29:20.623Z,22.00
2023-04-02T16:32:24.856Z,21.88
2023-04-02T16:35:41.076Z,22.05
2023-04-02T16:38:12.059Z,21.89
2023-04-02T16:41:13.260Z,21.62
2023-04-02T16:43:53.767Z,21.46
2023-04-02T16:46:40.900Z,21.45
2023-04-02T16:49:30.104Z,21.31
2023-04-02T16:52:09.827Z,21.29
2023-04-02T16:54:46.050Z,21.11
2023-04-02T16:57:39.217Z,21.06
2023-04-02T17:00:26.184Z,21.25
2023-04-02T17:03:18.124Z,21.23
2023-04-02T17:05:48.267Z,21.11
2023-04-02T17:08:47.702Z,20.87
2023-04-02T17:11:24.984Z,20.68
2023-04-02T17:14:11.766Z,20.79
2023-04-02T17:16:45.642Z,20.71
2023-04-02T17:19:15.987Z,20.42
2023-04-02T17:21:47.970Z,20.03
2023-04-02T17:24:17.234Z,19.74
2023-04-02T17:27:06.499Z,19.54
2023-04-02T17:29:37.253Z,19.32
2023-04-02T17:32:04.780Z,19.15
2023-04-02T17:34:32.783Z,18.93
2023-04-02T17:37:10.861Z,18.65
2023-04-02T17:40:17.132Z,18.45
2023-04-02T17:43:05.345Z,18.06
2023-04-02T17:45:51.802Z,17.85
2023-04-02T17:48:30.788Z,17.66
2023-04-02T17:51:30.382Z,17.40
2023-04-02T17:54:22.826Z,17.25
2023-04-02T17:57:11.534Z,17.13
2023-04-02T18:00:20.157Z,16.99
2023-04-02T18:03:01.904Z,16.87
2023-04-02T18:05:53.382Z,16.78
2023-04-02T18:08:52.290Z,16.76
2023-04-02T18:11:48.163Z,16.71
2023-04-02T18:14:30.044Z,16.68
2023-04-02T18:17:20.080Z,16.43
2023-04-02T18:19:50.304Z,16.35
2023-04-02T18:22:23.590Z,16.32
2023-04-02T18:25:04.853Z,16.32
2023-04-02T18:27:47.343Z,16.29
2023-04-02T18:30:28.115Z,16.25
2023-04-02T18:33:00.866Z,16.13
2023-04-02T18:35:33.531Z,16.06
2023-04-02T18:38:15.389Z,16.11
2023-04-02T18:40:56.469Z,16.11
2023-04-02T18:43:44.428Z,16.03
2023-04-02T18:46:23.022Z,16.08
2023-04-02T18:48:56.923Z,16.10
2023-04-02T18:51:26.014Z,16.12
2023-04-02T18:54:47.128Z,16.09
2023-04-02T18:57:24.048Z,16.08
2023-04-02T19:00:06.337Z,16.05
2023-04-02T19:02:42.252Z,16.03
2023-04-02T19:05:21.928Z,15.99
2023-04-02T19:07:48.818Z,15.98
2023-04-02T19:10:36.139Z,15.95
2023-04-02T19:13:03.602Z,16.02
2023-04-02T19:15:43.675Z,15.96
2023-04-02T19:18:19.692Z,16.00
2023-04-02T19:20:58.103Z,15.95
2023-04-02T19:23:32.988Z,15.97
2023-04-02T19:26:14.113Z,16.05
2023-04-02T19:29:07.282Z,15.99
2023-04-02T19:32:17.624Z,15.91
2023-04-02T19:34:54.224Z,15.96
2023-04-02T19:37:27.333Z,15.97
2023-04-02T19:40:16.602Z,15.92
2023-04-02T19:43:11.297Z,15.91
2023-04-02T19:45:39.433Z,15.86
2023-04-02T19:48:27.326Z,15.89
2023-04-02T19:50:55.660Z,15.93
2023-04-02T19:53:22.585Z,15.98
2023-04-02T19:55:50.535Z,15.93
2023-04-02T19:58:27.932Z,15.90
2023-04-02T20:00:55.620Z,15.87
2023-04-02T20:03:23.457Z,15.78
2023-04-02T20:05:51.265Z,15.75
2023-04-02T20:08:18.975Z,15.69
2023-04-02T20:10:46.215Z,15.64
2023-04-02T20:13:14.335Z,15.66
2023-04-02T20:15:42.509Z,15.68
2023-04-02T20:18:10.585Z,15.69
2023-04-02T20:20:39.308Z,15.58
2023-04-02T20:23:07.652Z,15.56
2023-04-02T20:25:36.181Z,15.45
2023-04-02T20:28:04.777Z,15.42
2023-04-02T20:30:32.885Z,15.47
2023-04-02T20:33:01.148Z,15.53
2023-04-02T20:35:29.753Z,15.52
2023-04-02T20:37:57.668Z,15.54
2023-04-02T20:40:25.901Z,15.55
2023-04-02T20:42:53.635Z,15.59
2023-04-02T20:45:22.686Z,15.63
2023-04-02T20:47:50.914Z,15.68
2023-04-02T20:50:19.638Z,15.68
2023-04-02T20:52:49.585Z,15.61
2023-04-02T20:55:18.014Z,15.48
2023-04-02T20:57:45.734Z,15.39
2023-04-02T21:00:15.697Z,15.37
2023-04-02T21:02:44.061Z,15.35
2023-04-02T21:05:12.141Z,15.31
2023-04-02T21:07:40.236Z,15.33
2023-04-02T21:10:10.045Z,15.19
2023-04-02T21:12:38.389Z,15.17
2023-04-02T21:15:08.776Z,15.23
2023-04-02T21:17:36.563Z,15.25
2023-04-02T21:20:04.456Z,15.26
2023-04-02T21:22:32.411Z,15.08
2023-04-02T21:25:00.514Z,15.08
2023-04-02T21:27:28.626Z,15.08
2023-04-02T21:29:56.369Z,15.01
2023-04-02T21:32:24.241Z,14.81
2023-04-02T21:34:51.922Z,14.64
2023-04-02T21:37:23.682Z,14.40
2023-04-02T21:39:51.758Z,14.31
2023-04-02T21:42:20.046Z,14.26
2023-04-02T21:44:47.703Z,14.28
2023-04-02T21:47:15.440Z,14.33
2023-04-02T21:49:43.128Z,14.25
2023-04-02T21:52:11.962Z,14.14
2023-04-02T21:54:39.894Z,14.07
2023-04-02T21:57:07.962Z,13.97
2023-04-02T21:59:35.742Z,13.78
2023-04-02T22:02:04.879Z,13.63
2023-04-02T22:04:33.525Z,13.55
2023-04-02T22:07:01.770Z,13.56
2023-04-02T22:09:29.728Z,13.58
2023-04-02T22:12:00.510Z,13.66
2023-04-02T22:14:28.786Z,13.73
2023-04-02T22:16:58.824Z,13.76
2023-04-02T22:19:27.380Z,13.71
2023-04-02T22:21:56.583Z,13.60
2023-04-02T22:24:25.062Z,13.47
2023-04-02T22:26:53.418Z,13.47
2023-04-02T22:29:21.435Z,13.53
2023-04-02T22:31:49.001Z,13.60
2023-04-02T22:34:16.459Z,13.53
2023-04-02T22:36:44.427Z,13.51
2023-04-02T22:39:12.679Z,13.55
2023-04-02T22:41:40.580Z,13.67
2023-04-02T22:44:08.253Z,13.76
2023-04-02T22:46:35.991Z,13.75
2023-04-02T22:49:04.053Z,13.74
2023-04-02T22:51:31.917Z,13.73
2023-04-02T22:53:59.946Z,13.73
2023-04-02T22:56:32.317Z,13.75
2023-04-02T22:58:59.718Z,13.79
2023-04-02T23:01:29.819Z,13.79
2023-04-02T23:03:57.997Z,13.75
2023-04-02T23:06:26.378Z,13.70
2023-04-02T23:08:53.743Z,13.74
2023-04-02T23:11:23.307Z,13.72
2023-04-02T23:13:52.489Z,13.70
2023-04-02T23:16:20.211Z,13.72
2023-04-02T23:18:48.175Z,13.64
2023-04-02T23:21:16.581Z,13.43
2023-04-02T23:23:43.431Z,13.25
2023-04-02T23:26:14.550Z,13.21
2023-04-02T23:28:42.226Z,13.25
2023-04-02T23:31:14.174Z,13.30
2023-04-02T23:33:41.945Z,13.30
2023-04-02T23:36:15.492Z,13.19
2023-04-02T23:38:43.211Z,13.09
2023-04-02T23:41:16.256Z,13.12
2023-04-02T23:43:44.564Z,13.07
2023-04-02T23:46:12.794Z,12.91
2023-04-02T23:48:40.813Z,12.71
2023-04-02T23:51:12.060Z,12.66
2023-04-02T23:53:40.505Z,12.55
2023-04-02T23:56:09.306Z,12.38
2023-04-02T23:58:36.935Z,12.38
